Skip to main content.
Our real time weather data display below is updated continuously via our 24/7 live data feed.
 TIME   TEMPERATURE   WINDSPEED   DIRECTION   HUMIDITY   BAROMETER   RAINFALL 
6:05 19.0°C (66.2°F) 16.7 kmh (10.4 mph) NE 72% 1016.9hPa (30.03 inHg) 0.0mm (0.00 in.)
5:05 20.0°C (68.0 °F) 20.4 kmh (12.7 mph) NE 72% 1016.9hPa (30.03 inHg) 0.0mm (0.00 in.)
4:05 20.0°C (68.0 °F) 20.4 kmh (12.7 mph) ENE 72% 1016.9hPa (30.03 inHg) 0.0mm (0.00 in.)
3:05 20.0°C (68.0 °F) 20.4 kmh (12.7 mph) NNE 77% 1016.9hPa (30.03 inHg) 0.0mm (0.00 in.)
2:05 21.0°C (69.8 °F) 20.4 kmh (12.7 mph) E 68% 1016.9hPa (30.03 inHg) 0.0mm (0.00 in.)
1:05 20.0°C (68.0 °F) 25.9 kmh (16.1 mph) E 72% 1016.9hPa (30.03 inHg) 0.0mm (0.00 in.)
12:05 20.0°C (68.0 °F) 25.9 kmh (16.1 mph) E 72% 1016.9hPa (30.03 inHg) 0.0mm (0.00 in.)
11:05 19.0°C (66.2 °F) 24.1 kmh (15.0 mph) E 82% 1016.9hPa (30.03 inHg) 0.0mm (0.00 in.)
10:05 18.0°C (64.4 °F) 18.5 kmh (11.5 mph) ENE 88% 1016.9hPa (30.03 inHg) 0.0mm (0.00 in.)
9:05 17.0°C (62.6 °F) 22.2 kmh (13.8 mph) ENE 100% 1016.9hPa (30.03 inHg) 0.0mm (0.00 in.)
8:05 16.0°C (60.8 °F) 18.5 kmh (11.5 mph) ENE 100% 1016.9hPa (30.03 inHg) 0.0mm (0.00 in.)
7:05 16.0°C (60.8 °F) 22.2 kmh (13.8 mph) NE 100% 1016.9hPa (30.03 inHg) 0.0mm (0.00 in.)
6:05 16.0°C (60.8 °F) 14.8 kmh (9.2 mph) ENE 100% 1015.9hPa (30.00 inHg) 0.0mm (0.00 in.)
5:05 16.0°C (60.8 °F) 16.7 kmh (10.4 mph) ENE 100% 1015.9hPa (30.00 inHg) 0.0mm (0.00 in.)
4:05 16.0°C (60.8 °F) 20.4 kmh (12.7 mph) ENE 100% 1016.9hPa (30.03 inHg) 0.0mm (0.00 in.)
3:05 16.0°C (60.8 °F) 18.5 kmh (11.5 mph) NE 100% 1016.9hPa (30.03 inHg) 0.0mm (0.00 in.)
2:05 16.0°C (60.8 °F) 16.7 kmh (10.4 mph) NE 100% 1016.9hPa (30.03 inHg) 0.0mm (0.00 in.)
1:05 16.0°C (60.8 °F) 16.7 kmh (10.4 mph) ENE 100% 1017.9hPa (30.06 inHg) 0.0mm (0.00 in.)
12:05 16.0°C (60.8 °F) 18.5 kmh (11.5 mph) ENE 100% 1016.9hPa (30.03 inHg) 0.0mm (0.00 in.)
11:05 16.0°C (60.8 °F) 16.7 kmh (10.4 mph) ENE 100% 1017.9hPa (30.06 inHg) 0.0mm (0.00 in.)
10:05 16.0°C (60.8 °F) 20.4 kmh (12.7 mph) ENE 100% 1016.9hPa (30.03 inHg) 0.0mm (0.00 in.)
9:05 17.0°C (62.6 °F) 22.2 kmh (13.8 mph) ENE 93% 1016.9hPa (30.03 inHg) 0.0mm (0.00 in.)
8:05 17.0°C (62.6 °F) 25.9 kmh (16.1 mph) ENE 88% 1015.9hPa (30.00 inHg) 0.0mm (0.00 in.)
7:05 18.0°C (64.4 °F) 20.4 kmh (12.7 mph) ENE 82% 1015.9hPa (30.00 inHg) 0.0mm (0.00 in.)